IWG002 LXGB-LEMH
Flight info
| Callsign | IWG002 |
|---|---|
| Flight time | N/A |
| Altitude | 36000 |
| Route | PIMOS N869 BLN N747 TOSTO M445 LASPO M871 PTC |
| Aircraft | A20N/M-SDE2E3FGHIJ1RWXY/LB1 |
Departure
| Time | 2026-05-05 15:50 |
|---|---|
| Airport | Gibraltar Airport (LXGB) |
Arrival
| Time | N/A |
|---|---|
| Airport | Menorca Airport (LEMH) |
| Time | Latitude | Longitude | Altitude | Speed | Heading |
|---|---|---|---|---|---|
| 2026-05-05 15:37 | 36.15307 | -5.34667 | 11 ft | 0 kts | 0° |
| 2026-05-05 15:43 | 36.15304 | -5.34668 | 17 ft | 0 kts | 327° |
| 2026-05-05 15:44 | 36.15300 | -5.34666 | 17 ft | 0 kts | 285° |
| 2026-05-05 15:44 | 36.15299 | -5.34662 | 17 ft | 0 kts | 245° |
| 2026-05-05 15:46 | 36.15298 | -5.34663 | 17 ft | 1 kts | 245° |
| 2026-05-05 15:47 | 36.15277 | -5.34685 | 17 ft | 7 kts | 202° |
| 2026-05-05 15:47 | 36.15239 | -5.34652 | 17 ft | 9 kts | 106° |
| 2026-05-05 15:47 | 36.15235 | -5.34568 | 17 ft | 11 kts | 87° |
| 2026-05-05 15:47 | 36.15238 | -5.34458 | 16 ft | 14 kts | 88° |
| 2026-05-05 15:48 | 36.15242 | -5.34314 | 14 ft | 19 kts | 89° |
| 2026-05-05 15:48 | 36.15242 | -5.34151 | 17 ft | 16 kts | 96° |
| 2026-05-05 15:48 | 36.15205 | -5.34070 | 18 ft | 10 kts | 161° |
| 2026-05-05 15:48 | 36.15157 | -5.34079 | 20 ft | 0 kts | 250° |
| 2026-05-05 15:49 | 36.15156 | -5.34080 | 20 ft | 1 kts | 251° |
| 2026-05-05 15:49 | 36.15144 | -5.34336 | 17 ft | 63 kts | 267° |
| 2026-05-05 15:49 | 36.15118 | -5.35111 | 22 ft | 115 kts | 268° |
| 2026-05-05 15:49 | 36.15106 | -5.36208 | 340 ft | 124 kts | 271° |
| 2026-05-05 15:50 | 36.15248 | -5.37191 | 920 ft | 116 kts | 288° |
| 2026-05-05 15:50 | 36.15438 | -5.38271 | 1180 ft | 138 kts | 268° |
| 2026-05-05 15:50 | 36.15318 | -5.39484 | 1925 ft | 145 kts | 263° |
| 2026-05-05 15:50 | 36.15144 | -5.40786 | 2513 ft | 164 kts | 262° |
| 2026-05-05 15:51 | 36.14695 | -5.42188 | 3119 ft | 188 kts | 244° |
| 2026-05-05 15:51 | 36.13803 | -5.43523 | 3714 ft | 215 kts | 221° |
| 2026-05-05 15:51 | 36.12339 | -5.44303 | 4337 ft | 250 kts | 188° |
| 2026-05-05 15:51 | 36.10564 | -5.44006 | 5250 ft | 264 kts | 153° |
| 2026-05-05 15:52 | 36.09154 | -5.42603 | 6384 ft | 263 kts | 123° |
| 2026-05-05 15:52 | 36.08462 | -5.40508 | 7201 ft | 268 kts | 94° |
| 2026-05-05 15:52 | 36.08640 | -5.38211 | 7988 ft | 272 kts | 71° |
| 2026-05-05 15:52 | 36.09236 | -5.35999 | 8821 ft | 276 kts | 68° |
| 2026-05-05 15:53 | 36.09838 | -5.33635 | 9286 ft | 300 kts | 73° |
| 2026-05-05 15:53 | 36.10280 | -5.31297 | 9942 ft | 310 kts | 77° |
| 2026-05-05 15:53 | 36.10665 | -5.28627 | 10564 ft | 325 kts | 79° |
| 2026-05-05 15:53 | 36.11009 | -5.25802 | 10899 ft | 349 kts | 80° |
| 2026-05-05 15:54 | 36.11356 | -5.22737 | 11401 ft | 365 kts | 81° |
| 2026-05-05 15:54 | 36.11702 | -5.19605 | 12273 ft | 369 kts | 81° |
| 2026-05-05 15:54 | 36.12051 | -5.16428 | 13140 ft | 375 kts | 81° |
| 2026-05-05 15:54 | 36.12403 | -5.13263 | 13964 ft | 381 kts | 81° |
| 2026-05-05 15:55 | 36.12767 | -5.09990 | 14774 ft | 385 kts | 81° |
| 2026-05-05 15:55 | 36.13135 | -5.06679 | 15538 ft | 389 kts | 82° |
| 2026-05-05 15:55 | 36.13505 | -5.03345 | 16158 ft | 393 kts | 82° |
| 2026-05-05 15:55 | 36.13879 | -4.99980 | 16785 ft | 398 kts | 82° |
| 2026-05-05 15:56 | 36.14258 | -4.96567 | 17419 ft | 402 kts | 82° |
| 2026-05-05 15:56 | 36.14683 | -4.93129 | 18029 ft | 406 kts | 75° |
| 2026-05-05 15:56 | 36.15696 | -4.89927 | 18569 ft | 407 kts | 58° |
| 2026-05-05 15:56 | 36.17446 | -4.87180 | 19073 ft | 407 kts | 40° |
| 2026-05-05 15:57 | 36.19717 | -4.85101 | 19592 ft | 406 kts | 28° |
| 2026-05-05 15:57 | 36.22171 | -4.83344 | 20123 ft | 409 kts | 26° |
| 2026-05-05 15:57 | 36.24678 | -4.81599 | 20623 ft | 414 kts | 26° |
| 2026-05-05 15:57 | 36.27184 | -4.79784 | 21156 ft | 418 kts | 27° |
| 2026-05-05 15:58 | 36.29686 | -4.77893 | 21662 ft | 422 kts | 28° |
| 2026-05-05 15:58 | 36.32161 | -4.75975 | 22170 ft | 426 kts | 28° |
| 2026-05-05 15:58 | 36.34654 | -4.74019 | 22671 ft | 430 kts | 28° |
| 2026-05-05 15:58 | 36.37193 | -4.72019 | 23174 ft | 434 kts | 28° |
| 2026-05-05 15:59 | 36.39751 | -4.70001 | 23651 ft | 437 kts | 28° |
| 2026-05-05 15:59 | 36.42340 | -4.67958 | 24090 ft | 440 kts | 28° |
| 2026-05-05 15:59 | 36.44932 | -4.65913 | 24504 ft | 443 kts | 28° |
| 2026-05-05 15:59 | 36.47519 | -4.63872 | 24923 ft | 446 kts | 28° |
| 2026-05-05 16:00 | 36.50157 | -4.61789 | 25324 ft | 449 kts | 28° |
| 2026-05-05 16:00 | 36.52804 | -4.59698 | 25717 ft | 452 kts | 28° |
| 2026-05-05 16:00 | 36.55441 | -4.57613 | 26088 ft | 455 kts | 28° |
| 2026-05-05 16:00 | 36.58095 | -4.55512 | 26461 ft | 458 kts | 28° |
| 2026-05-05 16:01 | 36.60797 | -4.53373 | 26825 ft | 462 kts | 28° |
| 2026-05-05 16:01 | 36.63514 | -4.51219 | 27150 ft | 466 kts | 28° |
| 2026-05-05 16:01 | 36.66256 | -4.49044 | 27515 ft | 468 kts | 28° |
| 2026-05-05 16:01 | 36.69015 | -4.46853 | 27839 ft | 472 kts | 28° |
| 2026-05-05 16:02 | 36.71762 | -4.44670 | 28153 ft | 475 kts | 28° |
| 2026-05-05 16:02 | 36.74557 | -4.42447 | 28450 ft | 478 kts | 28° |
| 2026-05-05 16:02 | 36.77365 | -4.40212 | 28784 ft | 481 kts | 28° |
| 2026-05-05 16:02 | 36.80204 | -4.37954 | 29094 ft | 484 kts | 27° |
| 2026-05-05 16:03 | 36.83161 | -4.35995 | 29417 ft | 481 kts | 19° |
| 2026-05-05 16:03 | 36.86238 | -4.34332 | 29653 ft | 484 kts | 19° |
| 2026-05-05 16:03 | 36.89341 | -4.32642 | 29987 ft | 486 kts | 19° |
| 2026-05-05 16:03 | 36.92444 | -4.30944 | 30258 ft | 488 kts | 18° |
| 2026-05-05 16:04 | 36.95568 | -4.29231 | 30536 ft | 490 kts | 18° |
| 2026-05-05 16:04 | 36.98699 | -4.27514 | 30813 ft | 493 kts | 18° |
| 2026-05-05 16:04 | 37.01839 | -4.25790 | 31104 ft | 494 kts | 18° |
| 2026-05-05 16:04 | 37.04993 | -4.24058 | 31411 ft | 495 kts | 18° |
| 2026-05-05 16:05 | 37.08141 | -4.22327 | 31797 ft | 494 kts | 18° |
| 2026-05-05 16:05 | 37.11305 | -4.20585 | 32160 ft | 494 kts | 18° |
| 2026-05-05 16:05 | 37.14412 | -4.18874 | 32514 ft | 494 kts | 18° |
| 2026-05-05 16:05 | 37.17559 | -4.17138 | 32846 ft | 494 kts | 18° |
| 2026-05-05 16:06 | 37.20705 | -4.15402 | 33166 ft | 493 kts | 18° |
| 2026-05-05 16:06 | 37.23842 | -4.13669 | 33467 ft | 493 kts | 18° |
| 2026-05-05 16:06 | 37.26992 | -4.11929 | 33741 ft | 494 kts | 18° |
| 2026-05-05 16:06 | 37.30137 | -4.10189 | 33995 ft | 494 kts | 18° |
| 2026-05-05 16:07 | 37.33275 | -4.08450 | 34344 ft | 491 kts | 18° |
| 2026-05-05 16:07 | 37.36400 | -4.06716 | 34669 ft | 489 kts | 18° |
| 2026-05-05 16:07 | 37.39514 | -4.04987 | 34952 ft | 488 kts | 18° |
| 2026-05-05 16:07 | 37.42620 | -4.03263 | 35225 ft | 486 kts | 18° |
| 2026-05-05 16:08 | 37.45711 | -4.01545 | 35495 ft | 485 kts | 17° |
| 2026-05-05 16:08 | 37.48797 | -3.99829 | 35766 ft | 484 kts | 17° |
| 2026-05-05 16:08 | 37.51834 | -3.98138 | 35941 ft | 483 kts | 18° |
| 2026-05-05 16:09 | 37.57956 | -3.94724 | 35965 ft | 481 kts | 17° |
| 2026-05-05 16:09 | 37.64086 | -3.91301 | 35952 ft | 481 kts | 17° |
| 2026-05-05 16:10 | 37.70211 | -3.87874 | 35949 ft | 481 kts | 17° |
| 2026-05-05 16:10 | 37.76335 | -3.84442 | 35949 ft | 481 kts | 17° |
| 2026-05-05 16:11 | 37.82445 | -3.81009 | 35940 ft | 480 kts | 17° |
| 2026-05-05 16:12 | 37.94644 | -3.74140 | 35928 ft | 480 kts | 17° |
| 2026-05-05 16:13 | 38.09798 | -3.65226 | 35943 ft | 491 kts | 29° |
| 2026-05-05 16:13 | 38.12469 | -3.62432 | 35941 ft | 503 kts | 41° |
| 2026-05-05 16:13 | 38.14700 | -3.58979 | 35943 ft | 510 kts | 54° |
| 2026-05-05 16:14 | 38.17476 | -3.50660 | 35945 ft | 516 kts | 77° |
| 2026-05-05 16:14 | 38.18875 | -3.41714 | 35942 ft | 516 kts | 79° |
| 2026-05-05 16:15 | 38.21741 | -3.23795 | 35945 ft | 516 kts | 78° |
| 2026-05-05 16:16 | 38.24688 | -3.05969 | 35945 ft | 516 kts | 78° |
| 2026-05-05 16:17 | 38.26885 | -2.92554 | 35953 ft | 517 kts | 78° |
| 2026-05-05 16:18 | 38.29056 | -2.79198 | 35955 ft | 517 kts | 78° |
| 2026-05-05 16:19 | 38.30989 | -2.67237 | 35958 ft | 518 kts | 79° |
| 2026-05-05 16:19 | 38.33379 | -2.52304 | 35957 ft | 517 kts | 79° |
| 2026-05-05 16:20 | 38.35918 | -2.35786 | 35956 ft | 518 kts | 85° |
| 2026-05-05 16:22 | 38.36347 | -2.12880 | 35951 ft | 519 kts | 91° |
| 2026-05-05 16:23 | 38.37157 | -1.94612 | 35923 ft | 519 kts | 72° |
| 2026-05-05 16:23 | 38.38486 | -1.90339 | 35916 ft | 518 kts | 60° |
| 2026-05-05 16:23 | 38.42627 | -1.82957 | 35912 ft | 513 kts | 46° |
| 2026-05-05 16:24 | 38.47186 | -1.75983 | 35913 ft | 513 kts | 47° |
| 2026-05-05 16:25 | 38.53864 | -1.65240 | 35913 ft | 515 kts | 49° |
| 2026-05-05 16:25 | 38.60466 | -1.54409 | 35914 ft | 515 kts | 49° |
| 2026-05-05 16:26 | 38.69266 | -1.39922 | 35918 ft | 515 kts | 49° |
| 2026-05-05 16:27 | 38.73631 | -1.32710 | 35911 ft | 513 kts | 49° |
| 2026-05-05 16:27 | 38.78015 | -1.25457 | 35903 ft | 514 kts | 49° |
| 2026-05-05 16:28 | 38.82389 | -1.18204 | 35903 ft | 514 kts | 50° |
| 2026-05-05 16:28 | 38.86788 | -1.11049 | 35895 ft | 513 kts | 44° |
| 2026-05-05 16:29 | 38.91269 | -1.03879 | 35896 ft | 516 kts | 46° |
| 2026-05-05 16:29 | 38.95799 | -0.96737 | 35885 ft | 515 kts | 48° |
| 2026-05-05 16:30 | 39.00143 | -0.89403 | 35888 ft | 516 kts | 51° |
| 2026-05-05 16:30 | 39.04332 | -0.81874 | 35876 ft | 515 kts | 52° |
| 2026-05-05 16:31 | 39.09029 | -0.75044 | 35876 ft | 510 kts | 36° |
| 2026-05-05 16:31 | 39.14498 | -0.69199 | 35866 ft | 510 kts | 36° |
| 2026-05-05 16:32 | 39.19953 | -0.63317 | 35871 ft | 510 kts | 36° |
| 2026-05-05 16:32 | 39.25183 | -0.57124 | 35869 ft | 515 kts | 46° |
| 2026-05-05 16:33 | 39.29279 | -0.49501 | 35876 ft | 520 kts | 64° |
| 2026-05-05 16:33 | 39.30571 | -0.45151 | 35877 ft | 518 kts | 76° |
| 2026-05-05 16:33 | 39.31230 | -0.40644 | 35878 ft | 514 kts | 88° |
| 2026-05-05 16:34 | 39.31242 | -0.35998 | 35873 ft | 509 kts | 100° |
| 2026-05-05 16:34 | 39.30766 | -0.31479 | 35869 ft | 507 kts | 102° |
| 2026-05-05 16:34 | 39.30238 | -0.22359 | 35863 ft | 512 kts | 92° |
| 2026-05-05 16:35 | 39.30501 | -0.13197 | 35861 ft | 514 kts | 91° |
| 2026-05-05 16:35 | 39.30886 | -0.03969 | 35852 ft | 513 kts | 89° |
| 2026-05-05 16:36 | 39.31414 | 0.05221 | 35848 ft | 512 kts | 87° |
| 2026-05-05 16:36 | 39.31880 | 0.14403 | 35836 ft | 511 kts | 88° |
| 2026-05-05 16:37 | 39.32285 | 0.23523 | 35840 ft | 510 kts | 91° |
| 2026-05-05 16:37 | 39.32645 | 0.32696 | 35844 ft | 511 kts | 91° |
| 2026-05-05 16:38 | 39.33052 | 0.41817 | 35847 ft | 511 kts | 91° |
| 2026-05-05 16:38 | 39.33472 | 0.51034 | 35850 ft | 511 kts | 91° |
| 2026-05-05 16:39 | 39.33888 | 0.60159 | 35858 ft | 512 kts | 91° |
| 2026-05-05 16:39 | 39.34302 | 0.69372 | 35864 ft | 512 kts | 91° |
| 2026-05-05 16:40 | 39.34707 | 0.78581 | 35875 ft | 513 kts | 91° |
| 2026-05-05 16:40 | 39.35105 | 0.87793 | 35882 ft | 514 kts | 91° |
| 2026-05-05 16:41 | 39.35495 | 0.97020 | 35889 ft | 514 kts | 91° |
| 2026-05-05 16:41 | 39.35875 | 1.06204 | 35898 ft | 515 kts | 91° |
| 2026-05-05 16:42 | 39.36250 | 1.15433 | 35875 ft | 513 kts | 91° |
| 2026-05-05 16:42 | 39.36617 | 1.24655 | 35882 ft | 513 kts | 91° |
| 2026-05-05 16:43 | 39.36974 | 1.33837 | 35883 ft | 513 kts | 91° |
| 2026-05-05 16:43 | 39.37326 | 1.43073 | 35880 ft | 513 kts | 91° |
| 2026-05-05 16:44 | 39.37666 | 1.52248 | 35884 ft | 513 kts | 91° |
| 2026-05-05 16:44 | 39.38002 | 1.61469 | 35879 ft | 514 kts | 91° |
| 2026-05-05 16:45 | 39.38331 | 1.70716 | 35880 ft | 514 kts | 91° |
| 2026-05-05 16:45 | 39.38650 | 1.79903 | 35883 ft | 514 kts | 91° |
| 2026-05-05 16:46 | 39.38965 | 1.89171 | 35884 ft | 514 kts | 91° |
| 2026-05-05 16:46 | 39.39270 | 1.98297 | 35886 ft | 514 kts | 91° |
| 2026-05-05 16:47 | 39.39571 | 2.07550 | 35890 ft | 514 kts | 91° |
| 2026-05-05 16:47 | 39.39864 | 2.16821 | 35889 ft | 514 kts | 91° |
| 2026-05-05 16:48 | 39.40148 | 2.26083 | 35900 ft | 514 kts | 92° |
| 2026-05-05 16:48 | 39.40423 | 2.35281 | 35896 ft | 514 kts | 92° |
| 2026-05-05 16:49 | 39.40692 | 2.44529 | 35911 ft | 513 kts | 92° |
| 2026-05-05 16:49 | 39.40952 | 2.53721 | 35915 ft | 513 kts | 92° |
| 2026-05-05 16:50 | 39.41208 | 2.63000 | 35920 ft | 512 kts | 83° |
| 2026-05-05 16:50 | 39.42284 | 2.72192 | 35168 ft | 520 kts | 83° |
| 2026-05-05 16:51 | 39.42499 | 2.76835 | 34689 ft | 512 kts | 86° |
| 2026-05-05 16:51 | 39.42504 | 2.81421 | 34152 ft | 505 kts | 96° |
| 2026-05-05 16:51 | 39.42343 | 2.85970 | 33351 ft | 506 kts | 97° |
| 2026-05-05 16:51 | 39.42215 | 2.90481 | 32455 ft | 510 kts | 96° |
| 2026-05-05 16:52 | 39.42178 | 2.95082 | 31522 ft | 515 kts | 93° |
| 2026-05-05 16:52 | 39.42241 | 2.99736 | 30729 ft | 516 kts | 90° |
| 2026-05-05 16:52 | 39.42381 | 3.04352 | 30088 ft | 513 kts | 91° |
| 2026-05-05 16:52 | 39.42497 | 3.08943 | 29447 ft | 507 kts | 91° |
| 2026-05-05 16:53 | 39.42600 | 3.13498 | 28834 ft | 502 kts | 91° |
| 2026-05-05 16:53 | 39.42699 | 3.18012 | 28215 ft | 497 kts | 91° |
| 2026-05-05 16:53 | 39.42933 | 3.22464 | 27610 ft | 495 kts | 83° |
| 2026-05-05 16:53 | 39.43754 | 3.26706 | 26980 ft | 496 kts | 72° |
| 2026-05-05 16:54 | 39.45217 | 3.30856 | 25993 ft | 503 kts | 54° |
| 2026-05-05 16:54 | 39.47324 | 3.34396 | 25017 ft | 505 kts | 44° |
| 2026-05-05 16:54 | 39.49650 | 3.37845 | 24158 ft | 509 kts | 53° |
| 2026-05-05 16:54 | 39.51423 | 3.41745 | 23778 ft | 496 kts | 66° |
| 2026-05-05 16:55 | 39.52787 | 3.45765 | 23537 ft | 474 kts | 68° |
| 2026-05-05 16:55 | 39.54109 | 3.49597 | 23296 ft | 455 kts | 65° |
| 2026-05-05 16:55 | 39.55511 | 3.53197 | 22850 ft | 442 kts | 63° |
| 2026-05-05 16:55 | 39.56957 | 3.56622 | 22195 ft | 435 kts | 60° |
| 2026-05-05 16:56 | 39.58462 | 3.60004 | 21547 ft | 428 kts | 60° |
| 2026-05-05 16:56 | 39.59956 | 3.63313 | 20927 ft | 422 kts | 59° |
| 2026-05-05 16:56 | 39.61430 | 3.66554 | 20531 ft | 409 kts | 59° |
| 2026-05-05 16:56 | 39.62877 | 3.69697 | 20206 ft | 401 kts | 58° |
| 2026-05-05 16:57 | 39.64288 | 3.72749 | 19844 ft | 397 kts | 59° |
| 2026-05-05 16:57 | 39.65684 | 3.75828 | 19466 ft | 393 kts | 59° |
| 2026-05-05 16:57 | 39.67065 | 3.78883 | 19099 ft | 389 kts | 58° |
| 2026-05-05 16:57 | 39.68443 | 3.81895 | 18735 ft | 384 kts | 58° |
| 2026-05-05 16:58 | 39.69787 | 3.84835 | 18384 ft | 381 kts | 58° |
| 2026-05-05 16:58 | 39.71118 | 3.87773 | 18011 ft | 377 kts | 58° |
| 2026-05-05 16:58 | 39.72015 | 3.89754 | 17712 ft | 375 kts | 59° |
| 2026-05-05 16:58 | 39.73330 | 3.92668 | 17294 ft | 372 kts | 58° |
| 2026-05-05 16:59 | 39.74674 | 3.95481 | 16850 ft | 368 kts | 50° |
| 2026-05-05 16:59 | 39.76539 | 3.97686 | 16396 ft | 360 kts | 28° |
| 2026-05-05 16:59 | 39.78815 | 3.98879 | 15943 ft | 349 kts | 6° |
| 2026-05-05 16:59 | 39.81185 | 3.98950 | 15488 ft | 336 kts | 345° |
| 2026-05-05 17:00 | 39.83327 | 3.97928 | 15023 ft | 323 kts | 322° |
| 2026-05-05 17:00 | 39.85091 | 3.96233 | 14859 ft | 309 kts | 320° |
| 2026-05-05 17:00 | 39.86932 | 3.94906 | 14695 ft | 298 kts | 334° |
| 2026-05-05 17:00 | 39.88913 | 3.94290 | 14532 ft | 290 kts | 350° |
| 2026-05-05 17:01 | 39.90930 | 3.94307 | 14258 ft | 290 kts | 2° |
| 2026-05-05 17:01 | 39.92921 | 3.94800 | 13918 ft | 292 kts | 12° |
| 2026-05-05 17:01 | 39.94848 | 3.95662 | 13551 ft | 294 kts | 20° |
| 2026-05-05 17:01 | 39.96695 | 3.96813 | 13172 ft | 294 kts | 26° |
| 2026-05-05 17:02 | 39.98439 | 3.98195 | 12837 ft | 293 kts | 32° |
| 2026-05-05 17:02 | 40.00085 | 3.99782 | 12459 ft | 293 kts | 38° |
| 2026-05-05 17:02 | 40.01651 | 4.01471 | 12156 ft | 291 kts | 38° |